sensor_id;sensor_type;location;lat;lon;timestamp;P1;durP1;ratioP1;P2;durP2;ratioP2
65879;SDS011;52661;51.364;6.054;2022-09-27T00:01:27;3.20;;;0.80;;
65879;SDS011;52661;51.364;6.054;2022-09-27T00:03:53;3.35;;;0.57;;
65879;SDS011;52661;51.364;6.054;2022-09-27T00:06:25;4.10;;;0.63;;
65879;SDS011;52661;51.364;6.054;2022-09-27T00:08:53;1.85;;;0.68;;
65879;SDS011;52661;51.364;6.054;2022-09-27T00:13:49;3.72;;;0.75;;
65879;SDS011;52661;51.364;6.054;2022-09-27T00:16:15;3.97;;;1.35;;
65879;SDS011;52661;51.364;6.054;2022-09-27T00:18:40;4.82;;;0.68;;
65879;SDS011;52661;51.364;6.054;2022-09-27T00:21:07;3.67;;;0.75;;
65879;SDS011;52661;51.364;6.054;2022-09-27T00:23:34;4.60;;;1.20;;
65879;SDS011;52661;51.364;6.054;2022-09-27T00:26:00;5.22;;;0.82;;
65879;SDS011;52661;51.364;6.054;2022-09-27T00:28:26;4.18;;;1.05;;
65879;SDS011;52661;51.364;6.054;2022-09-27T00:30:51;2.13;;;0.73;;
65879;SDS011;52661;51.364;6.054;2022-09-27T00:33:17;2.67;;;0.60;;
65879;SDS011;52661;51.364;6.054;2022-09-27T00:35:43;5.70;;;1.30;;
65879;SDS011;52661;51.364;6.054;2022-09-27T00:38:09;3.38;;;1.30;;
65879;SDS011;52661;51.364;6.054;2022-09-27T00:40:35;6.03;;;1.10;;
65879;SDS011;52661;51.364;6.054;2022-09-27T00:43:01;3.42;;;1.08;;
65879;SDS011;52661;51.364;6.054;2022-09-27T00:45:27;3.80;;;1.48;;
65879;SDS011;52661;51.364;6.054;2022-09-27T00:47:59;5.43;;;1.25;;
65879;SDS011;52661;51.364;6.054;2022-09-27T00:53:03;3.05;;;0.75;;
65879;SDS011;52661;51.364;6.054;2022-09-27T00:55:34;5.20;;;1.38;;
65879;SDS011;52661;51.364;6.054;2022-09-27T00:58:04;3.72;;;1.08;;
65879;SDS011;52661;51.364;6.054;2022-09-27T01:00:31;3.50;;;0.88;;
65879;SDS011;52661;51.364;6.054;2022-09-27T01:02:56;5.15;;;1.10;;
65879;SDS011;52661;51.364;6.054;2022-09-27T01:05:23;3.38;;;0.90;;
65879;SDS011;52661;51.364;6.054;2022-09-27T01:07:51;2.90;;;0.93;;
65879;SDS011;52661;51.364;6.054;2022-09-27T01:10:20;4.90;;;1.15;;
65879;SDS011;52661;51.364;6.054;2022-09-27T01:12:57;4.57;;;1.52;;
65879;SDS011;52661;51.364;6.054;2022-09-27T01:15:33;2.83;;;0.93;;
65879;SDS011;52661;51.364;6.054;2022-09-27T01:24:05;2.85;;;0.77;;
65879;SDS011;52661;51.364;6.054;2022-09-27T01:35:24;2.53;;;0.65;;
65879;SDS011;52661;51.364;6.054;2022-09-27T01:38:22;5.78;;;1.40;;
65879;SDS011;52661;51.364;6.054;2022-09-27T01:41:04;4.63;;;1.02;;
65879;SDS011;52661;51.364;6.054;2022-09-27T01:43:49;2.50;;;0.70;;
65879;SDS011;52661;51.364;6.054;2022-09-27T01:46:25;2.55;;;0.73;;
65879;SDS011;52661;51.364;6.054;2022-09-27T01:48:54;2.90;;;0.47;;
65879;SDS011;52661;51.364;6.054;2022-09-27T01:51:34;3.25;;;0.63;;
65879;SDS011;52661;51.364;6.054;2022-09-27T01:54:04;1.75;;;0.45;;
65879;SDS011;52661;51.364;6.054;2022-09-27T01:59:11;2.45;;;0.85;;
65879;SDS011;52661;51.364;6.054;2022-09-27T02:01:52;1.90;;;0.60;;
65879;SDS011;52661;51.364;6.054;2022-09-27T02:04:24;2.42;;;0.40;;
65879;SDS011;52661;51.364;6.054;2022-09-27T02:06:54;2.05;;;0.43;;
65879;SDS011;52661;51.364;6.054;2022-09-27T02:09:30;3.17;;;0.73;;
65879;SDS011;52661;51.364;6.054;2022-09-27T02:12:04;2.20;;;0.57;;
65879;SDS011;52661;51.364;6.054;2022-09-27T02:14:39;1.65;;;0.22;;
65879;SDS011;52661;51.364;6.054;2022-09-27T02:19:53;1.60;;;0.45;;
65879;SDS011;52661;51.364;6.054;2022-09-27T02:22:41;1.70;;;0.25;;
65879;SDS011;52661;51.364;6.054;2022-09-27T02:30:48;0.95;;;0.82;;
65879;SDS011;52661;51.364;6.054;2022-09-27T02:33:13;2.10;;;0.45;;
65879;SDS011;52661;51.364;6.054;2022-09-27T02:35:39;3.85;;;0.57;;
65879;SDS011;52661;51.364;6.054;2022-09-27T02:38:04;1.65;;;0.25;;
65879;SDS011;52661;51.364;6.054;2022-09-27T02:40:32;1.55;;;0.25;;
65879;SDS011;52661;51.364;6.054;2022-09-27T02:42:59;0.80;;;0.32;;
65879;SDS011;52661;51.364;6.054;2022-09-27T02:56:33;3.45;;;0.30;;
65879;SDS011;52661;51.364;6.054;2022-09-27T02:59:11;2.90;;;0.52;;
65879;SDS011;52661;51.364;6.054;2022-09-27T03:01:53;4.45;;;0.43;;
65879;SDS011;52661;51.364;6.054;2022-09-27T03:07:19;2.55;;;0.40;;
65879;SDS011;52661;51.364;6.054;2022-09-27T03:09:47;2.28;;;0.55;;
65879;SDS011;52661;51.364;6.054;2022-09-27T03:12:15;1.20;;;0.43;;
65879;SDS011;52661;51.364;6.054;2022-09-27T03:14:46;2.38;;;0.22;;
65879;SDS011;52661;51.364;6.054;2022-09-27T03:17:12;0.90;;;0.38;;
65879;SDS011;52661;51.364;6.054;2022-09-27T03:19:38;1.08;;;0.20;;
65879;SDS011;52661;51.364;6.054;2022-09-27T03:22:03;1.80;;;0.40;;
65879;SDS011;52661;51.364;6.054;2022-09-27T03:24:28;2.70;;;0.77;;
65879;SDS011;52661;51.364;6.054;2022-09-27T03:26:53;2.73;;;1.10;;
65879;SDS011;52661;51.364;6.054;2022-09-27T03:29:19;0.73;;;0.10;;
65879;SDS011;52661;51.364;6.054;2022-09-27T03:31:44;3.93;;;0.53;;
65879;SDS011;52661;51.364;6.054;2022-09-27T03:34:09;2.88;;;0.50;;
65879;SDS011;52661;51.364;6.054;2022-09-27T03:36:35;0.83;;;0.30;;
65879;SDS011;52661;51.364;6.054;2022-09-27T03:39:00;3.70;;;0.40;;
65879;SDS011;52661;51.364;6.054;2022-09-27T03:41:25;1.50;;;0.50;;
65879;SDS011;52661;51.364;6.054;2022-09-27T03:43:51;1.33;;;0.10;;
65879;SDS011;52661;51.364;6.054;2022-09-27T03:46:16;2.47;;;0.35;;
65879;SDS011;52661;51.364;6.054;2022-09-27T03:48:42;2.37;;;0.33;;
65879;SDS011;52661;51.364;6.054;2022-09-27T03:51:07;2.15;;;0.35;;
65879;SDS011;52661;51.364;6.054;2022-09-27T03:53:36;4.93;;;0.50;;
65879;SDS011;52661;51.364;6.054;2022-09-27T03:56:01;0.88;;;0.20;;
65879;SDS011;52661;51.364;6.054;2022-09-27T03:58:26;3.17;;;0.30;;
65879;SDS011;52661;51.364;6.054;2022-09-27T04:00:52;3.60;;;0.40;;
65879;SDS011;52661;51.364;6.054;2022-09-27T04:03:17;2.50;;;0.60;;
65879;SDS011;52661;51.364;6.054;2022-09-27T04:05:43;1.75;;;0.40;;
65879;SDS011;52661;51.364;6.054;2022-09-27T04:08:09;1.30;;;0.20;;
65879;SDS011;52661;51.364;6.054;2022-09-27T04:10:35;1.25;;;0.50;;
65879;SDS011;52661;51.364;6.054;2022-09-27T04:13:01;1.50;;;0.40;;
65879;SDS011;52661;51.364;6.054;2022-09-27T04:15:26;1.60;;;0.20;;
65879;SDS011;52661;51.364;6.054;2022-09-27T04:17:52;0.97;;;0.40;;
65879;SDS011;52661;51.364;6.054;2022-09-27T04:20:17;0.85;;;0.25;;
65879;SDS011;52661;51.364;6.054;2022-09-27T04:22:42;1.20;;;0.43;;
65879;SDS011;52661;51.364;6.054;2022-09-27T04:25:09;1.92;;;0.20;;
65879;SDS011;52661;51.364;6.054;2022-09-27T04:27:35;1.63;;;0.25;;
65879;SDS011;52661;51.364;6.054;2022-09-27T04:30:01;2.15;;;0.30;;
65879;SDS011;52661;51.364;6.054;2022-09-27T04:32:27;1.75;;;0.25;;
65879;SDS011;52661;51.364;6.054;2022-09-27T04:34:52;1.00;;;0.30;;
65879;SDS011;52661;51.364;6.054;2022-09-27T04:37:36;2.00;;;0.22;;
65879;SDS011;52661;51.364;6.054;2022-09-27T04:40:02;4.50;;;0.25;;
65879;SDS011;52661;51.364;6.054;2022-09-27T04:42:28;1.70;;;0.32;;
65879;SDS011;52661;51.364;6.054;2022-09-27T04:44:54;2.65;;;0.70;;
65879;SDS011;52661;51.364;6.054;2022-09-27T04:47:19;3.10;;;0.30;;
65879;SDS011;52661;51.364;6.054;2022-09-27T04:49:45;1.00;;;0.28;;
65879;SDS011;52661;51.364;6.054;2022-09-27T04:52:11;2.63;;;0.43;;
65879;SDS011;52661;51.364;6.054;2022-09-27T04:54:37;1.52;;;0.28;;
65879;SDS011;52661;51.364;6.054;2022-09-27T04:57:02;0.77;;;0.43;;
65879;SDS011;52661;51.364;6.054;2022-09-27T04:59:28;0.45;;;0.20;;
65879;SDS011;52661;51.364;6.054;2022-09-27T05:01:53;1.63;;;0.57;;
65879;SDS011;52661;51.364;6.054;2022-09-27T05:04:19;3.03;;;0.60;;
65879;SDS011;52661;51.364;6.054;2022-09-27T05:06:44;2.20;;;0.50;;
65879;SDS011;52661;51.364;6.054;2022-09-27T05:09:09;2.45;;;0.32;;
65879;SDS011;52661;51.364;6.054;2022-09-27T05:11:35;1.38;;;0.30;;
65879;SDS011;52661;51.364;6.054;2022-09-27T05:14:02;1.52;;;0.50;;
65879;SDS011;52661;51.364;6.054;2022-09-27T05:16:28;1.95;;;0.35;;
65879;SDS011;52661;51.364;6.054;2022-09-27T05:18:53;1.47;;;0.10;;
65879;SDS011;52661;51.364;6.054;2022-09-27T05:21:18;2.08;;;0.50;;
65879;SDS011;52661;51.364;6.054;2022-09-27T05:23:44;3.67;;;0.30;;
65879;SDS011;52661;51.364;6.054;2022-09-27T05:26:09;2.37;;;0.30;;
65879;SDS011;52661;51.364;6.054;2022-09-27T05:28:35;2.67;;;0.20;;
65879;SDS011;52661;51.364;6.054;2022-09-27T05:31:01;0.32;;;0.25;;
65879;SDS011;52661;51.364;6.054;2022-09-27T05:33:26;1.58;;;0.30;;
65879;SDS011;52661;51.364;6.054;2022-09-27T05:35:52;0.30;;;0.10;;
65879;SDS011;52661;51.364;6.054;2022-09-27T05:38:19;2.40;;;0.38;;
65879;SDS011;52661;51.364;6.054;2022-09-27T05:40:44;1.52;;;0.20;;
65879;SDS011;52661;51.364;6.054;2022-09-27T05:43:11;3.72;;;0.32;;
65879;SDS011;52661;51.364;6.054;2022-09-27T05:45:37;1.77;;;0.38;;
65879;SDS011;52661;51.364;6.054;2022-09-27T05:48:03;0.55;;;0.20;;
65879;SDS011;52661;51.364;6.054;2022-09-27T05:50:29;0.45;;;0.13;;
65879;SDS011;52661;51.364;6.054;2022-09-27T05:52:54;4.40;;;0.32;;
65879;SDS011;52661;51.364;6.054;2022-09-27T05:55:20;1.63;;;0.20;;
65879;SDS011;52661;51.364;6.054;2022-09-27T05:57:55;3.20;;;0.32;;
65879;SDS011;52661;51.364;6.054;2022-09-27T06:00:25;1.30;;;0.22;;
65879;SDS011;52661;51.364;6.054;2022-09-27T06:02:52;1.30;;;0.32;;
65879;SDS011;52661;51.364;6.054;2022-09-27T06:05:19;2.95;;;0.35;;
65879;SDS011;52661;51.364;6.054;2022-09-27T06:07:44;0.82;;;0.60;;
65879;SDS011;52661;51.364;6.054;2022-09-27T06:10:10;0.93;;;0.43;;
65879;SDS011;52661;51.364;6.054;2022-09-27T06:12:35;1.58;;;0.10;;
65879;SDS011;52661;51.364;6.054;2022-09-27T06:15:00;3.67;;;0.67;;
65879;SDS011;52661;51.364;6.054;2022-09-27T06:17:26;2.80;;;0.20;;
65879;SDS011;52661;51.364;6.054;2022-09-27T06:19:51;0.80;;;0.20;;
65879;SDS011;52661;51.364;6.054;2022-09-27T06:22:16;1.13;;;0.20;;
65879;SDS011;52661;51.364;6.054;2022-09-27T06:24:41;1.00;;;0.30;;
65879;SDS011;52661;51.364;6.054;2022-09-27T06:27:07;0.33;;;0.20;;
65879;SDS011;52661;51.364;6.054;2022-09-27T06:29:32;1.60;;;0.30;;
65879;SDS011;52661;51.364;6.054;2022-09-27T06:31:59;1.98;;;0.30;;
65879;SDS011;52661;51.364;6.054;2022-09-27T06:34:24;0.80;;;0.20;;
65879;SDS011;52661;51.364;6.054;2022-09-27T06:36:49;2.75;;;0.60;;
65879;SDS011;52661;51.364;6.054;2022-09-27T06:39:15;1.60;;;0.30;;
65879;SDS011;52661;51.364;6.054;2022-09-27T06:41:40;0.47;;;0.30;;
65879;SDS011;52661;51.364;6.054;2022-09-27T06:44:05;2.87;;;0.20;;
65879;SDS011;52661;51.364;6.054;2022-09-27T06:46:31;1.48;;;0.25;;
65879;SDS011;52661;51.364;6.054;2022-09-27T06:48:56;0.50;;;0.20;;
65879;SDS011;52661;51.364;6.054;2022-09-27T06:51:21;0.80;;;0.37;;
65879;SDS011;52661;51.364;6.054;2022-09-27T06:53:47;1.35;;;0.30;;
65879;SDS011;52661;51.364;6.054;2022-09-27T06:56:12;0.60;;;0.20;;
65879;SDS011;52661;51.364;6.054;2022-09-27T06:58:37;2.17;;;0.35;;
65879;SDS011;52661;51.364;6.054;2022-09-27T07:01:25;1.05;;;0.25;;
65879;SDS011;52661;51.364;6.054;2022-09-27T07:03:51;2.20;;;0.20;;
65879;SDS011;52661;51.364;6.054;2022-09-27T07:06:20;0.70;;;0.10;;
65879;SDS011;52661;51.364;6.054;2022-09-27T07:08:51;4.13;;;0.52;;
65879;SDS011;52661;51.364;6.054;2022-09-27T07:11:17;2.38;;;0.40;;
65879;SDS011;52661;51.364;6.054;2022-09-27T07:13:42;0.80;;;0.22;;
65879;SDS011;52661;51.364;6.054;2022-09-27T07:16:12;0.95;;;0.20;;
65879;SDS011;52661;51.364;6.054;2022-09-27T07:18:38;1.25;;;0.43;;
65879;SDS011;52661;51.364;6.054;2022-09-27T07:21:05;1.45;;;0.22;;
65879;SDS011;52661;51.364;6.054;2022-09-27T07:23:30;2.80;;;0.20;;
65879;SDS011;52661;51.364;6.054;2022-09-27T07:25:59;1.00;;;0.20;;
65879;SDS011;52661;51.364;6.054;2022-09-27T07:28:28;3.08;;;0.20;;
65879;SDS011;52661;51.364;6.054;2022-09-27T07:30:53;1.07;;;0.30;;
65879;SDS011;52661;51.364;6.054;2022-09-27T07:33:22;0.30;;;0.13;;
65879;SDS011;52661;51.364;6.054;2022-09-27T07:35:48;1.30;;;0.32;;
65879;SDS011;52661;51.364;6.054;2022-09-27T07:38:13;0.70;;;0.20;;
65879;SDS011;52661;51.364;6.054;2022-09-27T07:40:40;1.00;;;0.20;;
65879;SDS011;52661;51.364;6.054;2022-09-27T07:43:06;1.05;;;0.22;;
65879;SDS011;52661;51.364;6.054;2022-09-27T07:45:36;0.45;;;0.10;;
65879;SDS011;52661;51.364;6.054;2022-09-27T07:48:09;0.63;;;0.20;;
65879;SDS011;52661;51.364;6.054;2022-09-27T07:50:37;1.38;;;0.57;;
65879;SDS011;52661;51.364;6.054;2022-09-27T07:53:02;0.50;;;0.27;;
65879;SDS011;52661;51.364;6.054;2022-09-27T07:55:28;1.30;;;0.20;;
65879;SDS011;52661;51.364;6.054;2022-09-27T07:58:03;1.00;;;0.32;;
65879;SDS011;52661;51.364;6.054;2022-09-27T08:00:31;0.60;;;0.20;;
65879;SDS011;52661;51.364;6.054;2022-09-27T08:02:56;1.93;;;0.30;;
65879;SDS011;52661;51.364;6.054;2022-09-27T08:05:21;0.60;;;0.20;;
65879;SDS011;52661;51.364;6.054;2022-09-27T08:07:47;1.17;;;0.30;;
65879;SDS011;52661;51.364;6.054;2022-09-27T08:10:12;0.73;;;0.30;;
65879;SDS011;52661;51.364;6.054;2022-09-27T08:12:37;2.35;;;0.40;;
65879;SDS011;52661;51.364;6.054;2022-09-27T08:15:03;1.35;;;0.30;;
65879;SDS011;52661;51.364;6.054;2022-09-27T08:17:29;3.63;;;0.50;;
65879;SDS011;52661;51.364;6.054;2022-09-27T08:19:58;2.70;;;0.40;;
65879;SDS011;52661;51.364;6.054;2022-09-27T08:22:24;4.20;;;0.70;;
65879;SDS011;52661;51.364;6.054;2022-09-27T08:24:49;2.50;;;0.80;;
65879;SDS011;52661;51.364;6.054;2022-09-27T08:27:15;5.30;;;1.20;;
65879;SDS011;52661;51.364;6.054;2022-09-27T08:29:40;2.25;;;0.55;;
65879;SDS011;52661;51.364;6.054;2022-09-27T08:32:09;4.87;;;1.17;;
65879;SDS011;52661;51.364;6.054;2022-09-27T08:34:35;2.65;;;0.93;;
65879;SDS011;52661;51.364;6.054;2022-09-27T08:37:01;2.03;;;0.63;;
65879;SDS011;52661;51.364;6.054;2022-09-27T08:39:27;4.53;;;1.38;;
65879;SDS011;52661;51.364;6.054;2022-09-27T08:42:05;3.20;;;0.87;;
65879;SDS011;52661;51.364;6.054;2022-09-27T08:47:59;5.10;;;0.93;;
65879;SDS011;52661;51.364;6.054;2022-09-27T08:50:27;1.90;;;0.57;;
65879;SDS011;52661;51.364;6.054;2022-09-27T08:52:59;1.70;;;0.40;;
65879;SDS011;52661;51.364;6.054;2022-09-27T08:55:33;5.45;;;1.25;;
65879;SDS011;52661;51.364;6.054;2022-09-27T08:58:03;1.75;;;0.45;;
65879;SDS011;52661;51.364;6.054;2022-09-27T09:00:37;2.33;;;1.00;;
65879;SDS011;52661;51.364;6.054;2022-09-27T09:03:03;1.67;;;0.95;;
65879;SDS011;52661;51.364;6.054;2022-09-27T09:05:32;5.28;;;0.85;;
65879;SDS011;52661;51.364;6.054;2022-09-27T09:11:05;4.53;;;0.85;;
65879;SDS011;52661;51.364;6.054;2022-09-27T09:16:51;2.05;;;0.85;;
65879;SDS011;52661;51.364;6.054;2022-09-27T09:22:16;2.95;;;0.95;;
65879;SDS011;52661;51.364;6.054;2022-09-27T09:28:03;2.30;;;0.52;;
65879;SDS011;52661;51.364;6.054;2022-09-27T09:30:34;1.90;;;0.98;;
65879;SDS011;52661;51.364;6.054;2022-09-27T09:33:32;3.42;;;1.10;;
65879;SDS011;52661;51.364;6.054;2022-09-27T09:36:02;2.70;;;1.33;;
65879;SDS011;52661;51.364;6.054;2022-09-27T09:38:37;2.13;;;0.85;;
65879;SDS011;52661;51.364;6.054;2022-09-27T09:46:35;6.00;;;1.70;;
65879;SDS011;52661;51.364;6.054;2022-09-27T09:51:41;5.18;;;2.05;;
65879;SDS011;52661;51.364;6.054;2022-09-27T09:54:14;5.75;;;1.95;;
65879;SDS011;52661;51.364;6.054;2022-09-27T09:56:49;6.35;;;2.42;;
65879;SDS011;52661;51.364;6.054;2022-09-27T09:59:24;6.53;;;1.73;;
65879;SDS011;52661;51.364;6.054;2022-09-27T10:04:25;6.13;;;2.33;;
65879;SDS011;52661;51.364;6.054;2022-09-27T10:09:20;4.88;;;2.20;;
65879;SDS011;52661;51.364;6.054;2022-09-27T10:11:48;9.20;;;3.22;;
65879;SDS011;52661;51.364;6.054;2022-09-27T10:14:14;5.70;;;2.53;;
65879;SDS011;52661;51.364;6.054;2022-09-27T10:16:42;6.13;;;2.80;;
65879;SDS011;52661;51.364;6.054;2022-09-27T10:19:11;4.57;;;1.50;;
65879;SDS011;52661;51.364;6.054;2022-09-27T10:21:41;6.55;;;3.58;;
65879;SDS011;52661;51.364;6.054;2022-09-27T10:24:13;4.68;;;2.55;;
65879;SDS011;52661;51.364;6.054;2022-09-27T10:26:41;8.95;;;1.95;;
65879;SDS011;52661;51.364;6.054;2022-09-27T10:29:15;7.75;;;3.25;;
65879;SDS011;52661;51.364;6.054;2022-09-27T10:31:44;5.28;;;2.70;;
65879;SDS011;52661;51.364;6.054;2022-09-27T10:37:03;6.47;;;2.20;;
65879;SDS011;52661;51.364;6.054;2022-09-27T10:39:48;5.25;;;2.03;;
65879;SDS011;52661;51.364;6.054;2022-09-27T10:44:57;6.13;;;2.50;;
65879;SDS011;52661;51.364;6.054;2022-09-27T10:47:43;5.65;;;2.65;;
65879;SDS011;52661;51.364;6.054;2022-09-27T10:50:10;6.85;;;2.35;;
65879;SDS011;52661;51.364;6.054;2022-09-27T10:52:46;5.15;;;2.30;;
65879;SDS011;52661;51.364;6.054;2022-09-27T10:55:22;4.80;;;2.40;;
65879;SDS011;52661;51.364;6.054;2022-09-27T10:57:51;1.73;;;0.88;;
65879;SDS011;52661;51.364;6.054;2022-09-27T11:00:19;2.85;;;1.55;;
65879;SDS011;52661;51.364;6.054;2022-09-27T11:02:51;1.88;;;0.77;;
65879;SDS011;52661;51.364;6.054;2022-09-27T11:07:53;2.72;;;1.17;;
65879;SDS011;52661;51.364;6.054;2022-09-27T11:10:21;2.80;;;1.30;;
65879;SDS011;52661;51.364;6.054;2022-09-27T11:13:10;3.10;;;1.65;;
65879;SDS011;52661;51.364;6.054;2022-09-27T12:10:08;1.30;;;0.30;;
65879;SDS011;52661;51.364;6.054;2022-09-27T12:12:37;1.00;;;0.35;;
65879;SDS011;52661;51.364;6.054;2022-09-27T12:15:13;1.25;;;0.25;;
65879;SDS011;52661;51.364;6.054;2022-09-27T12:17:42;0.65;;;0.20;;
65879;SDS011;52661;51.364;6.054;2022-09-27T12:20:18;0.30;;;0.13;;
65879;SDS011;52661;51.364;6.054;2022-09-27T12:22:55;1.15;;;0.43;;
65879;SDS011;52661;51.364;6.054;2022-09-27T12:25:25;0.73;;;0.35;;
65879;SDS011;52661;51.364;6.054;2022-09-27T12:28:00;0.63;;;0.25;;
65879;SDS011;52661;51.364;6.054;2022-09-27T12:30:33;1.80;;;0.13;;
65879;SDS011;52661;51.364;6.054;2022-09-27T12:35:51;0.95;;;0.28;;
65879;SDS011;52661;51.364;6.054;2022-09-27T12:41:08;2.55;;;0.95;;
65879;SDS011;52661;51.364;6.054;2022-09-27T12:43:37;1.13;;;0.43;;
65879;SDS011;52661;51.364;6.054;2022-09-27T12:49:14;2.67;;;0.35;;
65879;SDS011;52661;51.364;6.054;2022-09-27T12:54:26;0.70;;;0.22;;
65879;SDS011;52661;51.364;6.054;2022-09-27T13:08:46;3.65;;;0.30;;
65879;SDS011;52661;51.364;6.054;2022-09-27T13:11:21;0.68;;;0.25;;
65879;SDS011;52661;51.364;6.054;2022-09-27T13:13:53;1.23;;;0.20;;
65879;SDS011;52661;51.364;6.054;2022-09-27T13:16:20;1.77;;;0.22;;
65879;SDS011;52661;51.364;6.054;2022-09-27T13:21:11;1.67;;;0.33;;
65879;SDS011;52661;51.364;6.054;2022-09-27T13:32:37;2.92;;;0.38;;
65879;SDS011;52661;51.364;6.054;2022-09-27T13:35:10;3.67;;;0.60;;
65879;SDS011;52661;51.364;6.054;2022-09-27T13:38:04;1.05;;;0.30;;
65879;SDS011;52661;51.364;6.054;2022-09-27T13:40:46;1.10;;;0.47;;
65879;SDS011;52661;51.364;6.054;2022-09-27T13:43:16;1.60;;;0.73;;
65879;SDS011;52661;51.364;6.054;2022-09-27T13:46:05;2.90;;;0.93;;
65879;SDS011;52661;51.364;6.054;2022-09-27T13:51:19;3.03;;;0.75;;
65879;SDS011;52661;51.364;6.054;2022-09-27T13:53:57;2.53;;;1.02;;
65879;SDS011;52661;51.364;6.054;2022-09-27T13:59:30;3.35;;;0.82;;
65879;SDS011;52661;51.364;6.054;2022-09-27T14:02:18;2.50;;;0.77;;
65879;SDS011;52661;51.364;6.054;2022-09-27T14:04:50;2.42;;;0.68;;
65879;SDS011;52661;51.364;6.054;2022-09-27T14:07:18;3.05;;;0.52;;
65879;SDS011;52661;51.364;6.054;2022-09-27T14:09:51;4.50;;;0.77;;
65879;SDS011;52661;51.364;6.054;2022-09-27T14:12:26;2.92;;;0.60;;
65879;SDS011;52661;51.364;6.054;2022-09-27T14:14:55;3.90;;;0.45;;
65879;SDS011;52661;51.364;6.054;2022-09-27T14:17:21;1.05;;;0.43;;
65879;SDS011;52661;51.364;6.054;2022-09-27T14:19:47;2.03;;;0.43;;
65879;SDS011;52661;51.364;6.054;2022-09-27T14:22:13;2.72;;;0.32;;
65879;SDS011;52661;51.364;6.054;2022-09-27T14:32:24;1.58;;;0.52;;
65879;SDS011;52661;51.364;6.054;2022-09-27T14:37:52;1.38;;;0.50;;
65879;SDS011;52661;51.364;6.054;2022-09-27T14:40:19;1.30;;;0.90;;
65879;SDS011;52661;51.364;6.054;2022-09-27T14:45:27;2.25;;;0.80;;
65879;SDS011;52661;51.364;6.054;2022-09-27T14:48:00;3.88;;;1.25;;
65879;SDS011;52661;51.364;6.054;2022-09-27T14:50:27;3.65;;;1.13;;
65879;SDS011;52661;51.364;6.054;2022-09-27T14:52:56;4.35;;;1.25;;
65879;SDS011;52661;51.364;6.054;2022-09-27T14:55:28;2.70;;;0.75;;
65879;SDS011;52661;51.364;6.054;2022-09-27T14:57:55;3.20;;;1.05;;
65879;SDS011;52661;51.364;6.054;2022-09-27T15:02:50;2.10;;;1.02;;
65879;SDS011;52661;51.364;6.054;2022-09-27T15:05:19;3.67;;;0.65;;
65879;SDS011;52661;51.364;6.054;2022-09-27T15:07:47;3.00;;;0.75;;
65879;SDS011;52661;51.364;6.054;2022-09-27T15:10:17;2.33;;;0.90;;
65879;SDS011;52661;51.364;6.054;2022-09-27T15:12:45;2.20;;;0.43;;
65879;SDS011;52661;51.364;6.054;2022-09-27T15:15:20;1.60;;;0.73;;
65879;SDS011;52661;51.364;6.054;2022-09-27T15:17:48;4.18;;;0.77;;
65879;SDS011;52661;51.364;6.054;2022-09-27T15:20:24;3.25;;;0.90;;
65879;SDS011;52661;51.364;6.054;2022-09-27T15:22:55;2.88;;;0.77;;
65879;SDS011;52661;51.364;6.054;2022-09-27T15:27:52;3.80;;;1.05;;
65879;SDS011;52661;51.364;6.054;2022-09-27T15:30:41;2.10;;;0.55;;
65879;SDS011;52661;51.364;6.054;2022-09-27T15:33:16;3.63;;;0.50;;
65879;SDS011;52661;51.364;6.054;2022-09-27T15:35:50;2.45;;;1.27;;
65879;SDS011;52661;51.364;6.054;2022-09-27T15:38:25;2.22;;;0.52;;
65879;SDS011;52661;51.364;6.054;2022-09-27T15:41:02;1.73;;;0.68;;
65879;SDS011;52661;51.364;6.054;2022-09-27T15:48:30;2.85;;;0.65;;
65879;SDS011;52661;51.364;6.054;2022-09-27T15:50:56;2.00;;;0.63;;
65879;SDS011;52661;51.364;6.054;2022-09-27T15:58:22;2.13;;;1.13;;
65879;SDS011;52661;51.364;6.054;2022-09-27T16:03:17;2.53;;;1.25;;
65879;SDS011;52661;51.364;6.054;2022-09-27T16:05:42;4.47;;;0.77;;
65879;SDS011;52661;51.364;6.054;2022-09-27T16:08:09;4.30;;;0.90;;
65879;SDS011;52661;51.364;6.054;2022-09-27T16:10:36;2.33;;;0.77;;
65879;SDS011;52661;51.364;6.054;2022-09-27T16:13:04;4.18;;;0.80;;
65879;SDS011;52661;51.364;6.054;2022-09-27T16:15:29;2.88;;;0.93;;
65879;SDS011;52661;51.364;6.054;2022-09-27T16:17:55;2.88;;;1.05;;
65879;SDS011;52661;51.364;6.054;2022-09-27T16:20:22;2.42;;;0.43;;
65879;SDS011;52661;51.364;6.054;2022-09-27T16:22:51;2.10;;;1.25;;
65879;SDS011;52661;51.364;6.054;2022-09-27T16:25:18;4.40;;;0.73;;
65879;SDS011;52661;51.364;6.054;2022-09-27T16:27:44;2.80;;;0.80;;
65879;SDS011;52661;51.364;6.054;2022-09-27T16:30:10;1.83;;;0.82;;
65879;SDS011;52661;51.364;6.054;2022-09-27T16:32:43;6.32;;;0.90;;
65879;SDS011;52661;51.364;6.054;2022-09-27T16:35:10;3.63;;;1.17;;
65879;SDS011;52661;51.364;6.054;2022-09-27T16:37:36;2.72;;;1.08;;
65879;SDS011;52661;51.364;6.054;2022-09-27T16:40:02;4.85;;;0.98;;
65879;SDS011;52661;51.364;6.054;2022-09-27T16:42:29;3.60;;;0.70;;
65879;SDS011;52661;51.364;6.054;2022-09-27T16:44:54;2.90;;;0.70;;
65879;SDS011;52661;51.364;6.054;2022-09-27T16:47:20;2.00;;;0.80;;
65879;SDS011;52661;51.364;6.054;2022-09-27T16:49:45;3.50;;;0.80;;
65879;SDS011;52661;51.364;6.054;2022-09-27T16:52:30;1.73;;;1.02;;
65879;SDS011;52661;51.364;6.054;2022-09-27T16:54:58;2.08;;;0.73;;
65879;SDS011;52661;51.364;6.054;2022-09-27T16:57:24;4.65;;;0.90;;
65879;SDS011;52661;51.364;6.054;2022-09-27T16:59:52;3.17;;;0.88;;
65879;SDS011;52661;51.364;6.054;2022-09-27T17:02:18;3.13;;;0.73;;
65879;SDS011;52661;51.364;6.054;2022-09-27T17:04:43;3.73;;;1.13;;
65879;SDS011;52661;51.364;6.054;2022-09-27T17:07:09;1.90;;;0.90;;
65879;SDS011;52661;51.364;6.054;2022-09-27T17:09:34;1.77;;;0.60;;
65879;SDS011;52661;51.364;6.054;2022-09-27T17:11:59;2.47;;;0.80;;
65879;SDS011;52661;51.364;6.054;2022-09-27T17:14:24;3.10;;;0.68;;
65879;SDS011;52661;51.364;6.054;2022-09-27T17:16:51;2.40;;;0.82;;
65879;SDS011;52661;51.364;6.054;2022-09-27T17:19:17;6.00;;;1.27;;
65879;SDS011;52661;51.364;6.054;2022-09-27T17:21:43;3.65;;;1.05;;
65879;SDS011;52661;51.364;6.054;2022-09-27T17:24:09;2.17;;;0.90;;
65879;SDS011;52661;51.364;6.054;2022-09-27T17:26:35;3.20;;;1.33;;
65879;SDS011;52661;51.364;6.054;2022-09-27T17:29:00;4.17;;;1.10;;
65879;SDS011;52661;51.364;6.054;2022-09-27T17:31:26;3.88;;;1.48;;
65879;SDS011;52661;51.364;6.054;2022-09-27T17:33:55;4.93;;;1.60;;
65879;SDS011;52661;51.364;6.054;2022-09-27T17:36:21;4.82;;;0.95;;
65879;SDS011;52661;51.364;6.054;2022-09-27T17:38:50;2.83;;;1.15;;
65879;SDS011;52661;51.364;6.054;2022-09-27T17:41:25;3.63;;;1.30;;
65879;SDS011;52661;51.364;6.054;2022-09-27T17:43:52;2.53;;;1.35;;
65879;SDS011;52661;51.364;6.054;2022-09-27T17:46:20;4.20;;;1.40;;
65879;SDS011;52661;51.364;6.054;2022-09-27T17:48:47;4.70;;;1.10;;
65879;SDS011;52661;51.364;6.054;2022-09-27T17:51:35;3.03;;;1.30;;
65879;SDS011;52661;51.364;6.054;2022-09-27T17:54:02;2.30;;;1.00;;
65879;SDS011;52661;51.364;6.054;2022-09-27T17:56:28;4.00;;;1.80;;
65879;SDS011;52661;51.364;6.054;2022-09-27T17:58:56;5.35;;;1.23;;
65879;SDS011;52661;51.364;6.054;2022-09-27T18:01:23;2.85;;;0.85;;
65879;SDS011;52661;51.364;6.054;2022-09-27T18:03:55;4.07;;;0.85;;
65879;SDS011;52661;51.364;6.054;2022-09-27T18:06:23;4.13;;;0.68;;
65879;SDS011;52661;51.364;6.054;2022-09-27T18:08:49;2.10;;;0.95;;
65879;SDS011;52661;51.364;6.054;2022-09-27T18:11:16;2.20;;;0.70;;
65879;SDS011;52661;51.364;6.054;2022-09-27T18:13:45;3.53;;;1.42;;
65879;SDS011;52661;51.364;6.054;2022-09-27T18:16:13;3.15;;;0.82;;
65879;SDS011;52661;51.364;6.054;2022-09-27T18:21:09;4.93;;;1.02;;
65879;SDS011;52661;51.364;6.054;2022-09-27T18:23:38;1.92;;;0.85;;
65879;SDS011;52661;51.364;6.054;2022-09-27T18:26:04;2.88;;;1.27;;
65879;SDS011;52661;51.364;6.054;2022-09-27T18:28:34;3.53;;;1.48;;